createdAt,value
2024-02-02T00:00:27.792Z,89.95
2024-02-02T00:03:30.560Z,101.00
2024-02-02T00:06:33.039Z,93.95
2024-02-02T00:09:35.727Z,77.05
2024-02-02T00:12:38.513Z,88.80
2024-02-02T00:15:40.971Z,80.30
2024-02-02T00:18:43.354Z,86.28
2024-02-02T00:21:45.694Z,79.75
2024-02-02T00:24:49.050Z,85.20
2024-02-02T00:27:51.296Z,79.35
2024-02-02T00:30:53.509Z,74.57
2024-02-02T00:33:55.814Z,78.95
2024-02-02T00:36:58.206Z,78.57
2024-02-02T00:40:00.587Z,73.45
2024-02-02T00:43:03.146Z,80.32
2024-02-02T00:46:05.747Z,79.90
2024-02-02T00:49:07.949Z,76.18
2024-02-02T00:52:10.252Z,86.40
2024-02-02T00:55:12.369Z,83.90
2024-02-02T00:58:14.431Z,80.70
2024-02-02T01:01:16.541Z,87.55
2024-02-02T01:04:18.776Z,84.55
2024-02-02T01:07:21.134Z,87.38
2024-02-02T01:10:23.605Z,86.25
2024-02-02T01:13:25.926Z,80.50
2024-02-02T01:16:28.860Z,87.15
2024-02-02T01:19:32.289Z,98.90
2024-02-02T01:22:34.651Z,93.05
2024-02-02T01:25:36.815Z,98.10
2024-02-02T01:28:39.233Z,94.65
2024-02-02T01:31:41.521Z,96.47
2024-02-02T01:34:43.826Z,98.38
2024-02-02T01:37:46.201Z,94.97
2024-02-02T01:40:48.298Z,93.10
2024-02-02T01:43:50.600Z,70.80
2024-02-02T01:46:52.778Z,74.32
2024-02-02T01:49:55.064Z,80.07
2024-02-02T01:52:57.319Z,87.85
2024-02-02T01:55:59.538Z,89.40
2024-02-02T01:59:04.758Z,90.10
2024-02-02T02:02:07.937Z,85.45
2024-02-02T02:05:11.259Z,88.80
2024-02-02T02:08:13.556Z,92.47
2024-02-02T02:11:16.118Z,85.65
2024-02-02T02:14:18.489Z,94.95
2024-02-02T02:17:21.093Z,78.25
2024-02-02T02:20:26.983Z,63.92
2024-02-02T02:23:29.643Z,51.75
2024-02-02T02:26:32.197Z,40.10
2024-02-02T02:29:34.432Z,39.15
2024-02-02T02:32:36.800Z,54.30
2024-02-02T02:35:39.019Z,52.42
2024-02-02T02:38:41.283Z,53.15
2024-02-02T02:41:43.559Z,45.45
2024-02-02T02:44:45.728Z,32.92
2024-02-02T02:47:48.059Z,25.45
2024-02-02T02:50:50.692Z,27.38
2024-02-02T02:53:52.894Z,20.58
2024-02-02T02:56:55.137Z,15.15
2024-02-02T02:59:57.605Z,15.68
2024-02-02T03:03:00.349Z,21.90
2024-02-02T03:06:02.827Z,18.95
2024-02-02T03:09:06.128Z,19.33
2024-02-02T03:12:08.934Z,23.30
2024-02-02T03:15:12.392Z,20.95
2024-02-02T03:18:15.983Z,19.52
2024-02-02T03:21:18.504Z,17.80
2024-02-02T03:24:21.848Z,16.42
2024-02-02T03:27:24.248Z,15.75
2024-02-02T03:30:28.738Z,19.13
2024-02-02T03:33:31.673Z,17.77
2024-02-02T03:36:34.459Z,19.75
2024-02-02T03:39:37.555Z,17.30
2024-02-02T03:42:39.852Z,19.58
2024-02-02T03:45:42.167Z,23.00
2024-02-02T03:48:44.582Z,18.48
2024-02-02T03:51:47.052Z,23.40
2024-02-02T03:54:49.542Z,22.85
2024-02-02T03:57:51.918Z,19.05
2024-02-02T04:00:54.243Z,21.20
2024-02-02T04:03:57.303Z,18.10
2024-02-02T04:07:00.169Z,17.77
2024-02-02T04:10:02.542Z,21.42
2024-02-02T04:13:06.451Z,20.95
2024-02-02T04:16:08.830Z,19.13
2024-02-02T04:19:16.367Z,23.92
2024-02-02T04:22:18.730Z,16.87
2024-02-02T04:25:21.024Z,19.20
2024-02-02T04:28:23.456Z,18.50
2024-02-02T04:31:25.707Z,17.67
2024-02-02T04:34:28.394Z,17.63
2024-02-02T04:37:31.194Z,16.27
2024-02-02T04:40:34.001Z,19.67
2024-02-02T04:43:36.631Z,20.95
2024-02-02T04:46:38.929Z,14.45
2024-02-02T04:49:41.236Z,17.45
2024-02-02T04:52:46.148Z,13.73
2024-02-02T04:55:48.365Z,16.83
2024-02-02T04:58:53.400Z,25.35
2024-02-02T05:01:55.746Z,26.65
2024-02-02T05:04:57.923Z,22.45
2024-02-02T05:08:00.158Z,20.95
2024-02-02T05:11:02.214Z,19.05
2024-02-02T05:14:04.522Z,24.55
2024-02-02T05:17:06.837Z,16.75
2024-02-02T05:20:09.008Z,26.08
2024-02-02T05:23:12.079Z,18.02
2024-02-02T05:26:14.272Z,19.92
2024-02-02T05:29:16.397Z,19.70
2024-02-02T05:32:18.641Z,19.67
2024-02-02T05:35:20.872Z,14.57
2024-02-02T05:38:23.048Z,23.52
2024-02-02T05:41:25.219Z,18.55
2024-02-02T05:44:27.396Z,16.27
2024-02-02T05:47:29.662Z,12.63
2024-02-02T05:50:32.673Z,18.77
2024-02-02T05:53:34.906Z,22.27
2024-02-02T05:56:37.285Z,18.65
2024-02-02T05:59:39.709Z,23.20
2024-02-02T06:02:43.321Z,16.35
2024-02-02T06:05:45.625Z,19.05
2024-02-02T06:08:48.008Z,19.83
2024-02-02T06:11:50.076Z,19.08
2024-02-02T06:14:52.232Z,14.75
2024-02-02T06:17:54.438Z,18.40
2024-02-02T06:20:56.711Z,29.00
2024-02-02T06:23:59.123Z,19.10
2024-02-02T06:27:01.322Z,23.85
2024-02-02T06:30:05.184Z,21.38
2024-02-02T06:33:08.134Z,17.52
2024-02-02T06:36:10.779Z,22.38
2024-02-02T06:39:13.467Z,25.92
2024-02-02T06:42:16.578Z,19.35
2024-02-02T06:45:18.907Z,15.95
2024-02-02T06:48:22.764Z,15.60
2024-02-02T06:51:25.454Z,10.43
2024-02-02T06:54:27.760Z,11.43
2024-02-02T06:57:33.592Z,15.57
2024-02-02T07:00:35.962Z,24.67
2024-02-02T07:03:38.853Z,17.02
2024-02-02T07:06:42.152Z,19.77
2024-02-02T07:09:57.614Z,18.58
2024-02-02T07:13:01.332Z,22.55
2024-02-02T07:16:04.133Z,23.50
2024-02-02T07:19:31.978Z,19.55
2024-02-02T07:22:42.514Z,19.92
2024-02-02T07:25:44.710Z,16.30
2024-02-02T07:28:46.779Z,17.13
2024-02-02T07:31:49.161Z,18.80
2024-02-02T07:34:55.360Z,31.52
2024-02-02T07:38:05.318Z,21.48
2024-02-02T07:41:13.662Z,24.77
2024-02-02T07:44:16.354Z,25.42
2024-02-02T07:47:18.468Z,34.78
2024-02-02T07:50:20.686Z,23.25
2024-02-02T07:53:24.100Z,18.98
2024-02-02T07:56:27.250Z,23.73
2024-02-02T07:59:29.465Z,28.05
2024-02-02T08:02:31.637Z,21.42
2024-02-02T08:05:38.569Z,21.95
2024-02-02T08:08:41.031Z,18.27
2024-02-02T08:11:43.229Z,18.58
2024-02-02T08:14:45.332Z,17.20
2024-02-02T08:17:47.441Z,21.33
2024-02-02T08:20:49.649Z,25.25
2024-02-02T08:23:51.801Z,26.60
2024-02-02T08:26:54.764Z,30.38
2024-02-02T08:29:57.227Z,31.23
2024-02-02T08:32:59.472Z,29.13
2024-02-02T08:36:01.834Z,33.03
2024-02-02T08:39:04.289Z,28.52
2024-02-02T08:42:15.857Z,19.25
2024-02-02T08:45:44.554Z,23.23
2024-02-02T08:48:48.408Z,21.17
2024-02-02T08:51:52.735Z,29.33
2024-02-02T08:54:55.062Z,48.75
2024-02-02T08:58:03.245Z,42.17
2024-02-02T09:01:08.120Z,26.08
2024-02-02T09:04:34.617Z,22.52
2024-02-02T09:07:37.365Z,27.08
2024-02-02T09:10:41.862Z,18.15
2024-02-02T09:13:45.864Z,10.65
2024-02-02T09:16:50.846Z,22.85
2024-02-02T09:19:56.819Z,32.00
2024-02-02T09:23:00.588Z,34.33
2024-02-02T09:26:12.594Z,56.13
2024-02-02T09:29:15.302Z,37.70
2024-02-02T09:32:17.613Z,32.85
2024-02-02T09:35:55.309Z,25.67
2024-02-02T09:38:58.772Z,55.58
2024-02-02T09:42:01.229Z,59.10
2024-02-02T09:45:28.797Z,48.85
2024-02-02T09:49:02.321Z,53.40
2024-02-02T09:52:39.784Z,34.67
2024-02-02T09:56:11.591Z,39.17
2024-02-02T09:59:23.901Z,31.75
2024-02-02T10:02:31.563Z,33.22
2024-02-02T10:06:04.791Z,33.53
2024-02-02T10:09:23.279Z,32.10
2024-02-02T10:12:49.607Z,38.40
2024-02-02T10:16:31.451Z,28.48
2024-02-02T10:19:45.991Z,43.83
2024-02-02T10:23:09.773Z,40.13
2024-02-02T10:26:29.831Z,33.90
2024-02-02T10:29:44.292Z,42.20
2024-02-02T10:32:55.529Z,40.28
2024-02-02T10:36:00.620Z,119.65
2024-02-02T10:39:24.360Z,33.15
2024-02-02T10:42:47.560Z,31.42
2024-02-02T10:46:07.933Z,28.85
2024-02-02T10:49:35.326Z,23.80
2024-02-02T10:52:59.089Z,10.75
2024-02-02T10:56:26.185Z,21.27
2024-02-02T10:59:34.625Z,12.57
2024-02-02T11:02:53.047Z,19.63
2024-02-02T11:09:13.359Z,19.45
2024-02-02T11:12:24.765Z,19.40
2024-02-02T11:15:48.472Z,13.25
2024-02-02T11:19:22.598Z,21.13
2024-02-02T11:22:55.786Z,27.08
2024-02-02T11:26:08.510Z,29.77
2024-02-02T11:29:24.402Z,50.67
2024-02-02T11:32:45.750Z,27.85
2024-02-02T11:35:59.663Z,18.00
2024-02-02T11:39:01.855Z,21.00
2024-02-02T11:42:05.510Z,19.80
2024-02-02T11:45:19.433Z,15.20
2024-02-02T11:48:35.240Z,10.50
2024-02-02T11:51:38.804Z,6.63
2024-02-02T11:55:22.678Z,11.48
2024-02-02T11:58:26.610Z,18.77
2024-02-02T12:01:35.466Z,14.52
2024-02-02T12:04:43.452Z,15.75
2024-02-02T12:08:04.789Z,15.80
2024-02-02T12:11:11.212Z,17.25
2024-02-02T12:14:39.595Z,15.07
2024-02-02T12:17:41.974Z,15.98
2024-02-02T12:20:45.387Z,18.45
2024-02-02T12:23:48.685Z,18.83
2024-02-02T12:26:51.413Z,22.52
2024-02-02T12:29:53.694Z,24.02
2024-02-02T12:32:58.713Z,38.92
2024-02-02T12:36:07.127Z,29.50
2024-02-02T12:39:12.194Z,15.25
2024-02-02T12:42:14.496Z,22.77
2024-02-02T12:45:17.619Z,25.52
2024-02-02T12:48:21.177Z,21.13
2024-02-02T12:51:26.093Z,16.48
2024-02-02T12:54:28.263Z,20.67
2024-02-02T12:57:30.636Z,18.15
2024-02-02T13:00:33.261Z,28.52
2024-02-02T13:03:41.330Z,16.73
2024-02-02T13:06:47.151Z,17.30
2024-02-02T13:09:52.567Z,23.00
2024-02-02T13:12:54.805Z,24.92
2024-02-02T13:15:57.141Z,27.67
2024-02-02T13:19:00.156Z,50.70
2024-02-02T13:22:03.395Z,36.20
2024-02-02T13:25:11.745Z,34.22
2024-02-02T13:31:20.040Z,23.85
2024-02-02T13:34:23.354Z,23.55
2024-02-02T13:37:38.974Z,34.95
2024-02-02T13:40:42.149Z,12.63
2024-02-02T13:43:45.718Z,26.17
2024-02-02T13:46:48.483Z,20.83
2024-02-02T13:49:57.101Z,24.77
2024-02-02T13:52:59.781Z,36.28
2024-02-02T13:56:11.516Z,43.88
2024-02-02T13:59:20.618Z,24.73
2024-02-02T14:02:25.570Z,20.35
2024-02-02T14:05:27.686Z,22.42
2024-02-02T14:08:40.563Z,19.70
2024-02-02T14:11:42.976Z,25.05
2024-02-02T14:14:45.682Z,17.50
2024-02-02T14:17:48.251Z,22.08
2024-02-02T14:20:50.537Z,27.55
2024-02-02T14:23:52.789Z,27.65
2024-02-02T14:26:57.157Z,28.73
2024-02-02T14:29:59.412Z,23.00
2024-02-02T14:33:13.632Z,17.77
2024-02-02T14:36:23.932Z,17.40
2024-02-02T14:39:27.704Z,26.42
2024-02-02T14:42:30.477Z,24.88
2024-02-02T14:45:34.548Z,27.02
2024-02-02T14:48:38.647Z,20.27
2024-02-02T14:51:42.144Z,12.35
2024-02-02T14:54:46.263Z,22.02
2024-02-02T14:57:49.399Z,21.83
2024-02-02T15:00:53.954Z,23.88
2024-02-02T15:03:56.213Z,34.92
2024-02-02T15:06:59.212Z,26.88
2024-02-02T15:10:01.674Z,20.30
2024-02-02T15:13:05.719Z,33.92
2024-02-02T15:16:10.804Z,22.95
2024-02-02T15:19:13.064Z,18.67
2024-02-02T15:22:15.274Z,27.50
2024-02-02T15:25:17.450Z,24.58
2024-02-02T15:28:19.620Z,43.17
2024-02-02T15:31:21.935Z,31.77
2024-02-02T15:34:24.734Z,20.67
2024-02-02T15:37:27.761Z,23.88
2024-02-02T15:40:29.996Z,24.30
2024-02-02T15:43:32.124Z,23.30
2024-02-02T15:46:34.335Z,22.95
2024-02-02T15:49:36.685Z,33.50
2024-02-02T15:52:40.262Z,9.57
2024-02-02T15:55:42.464Z,10.65
2024-02-02T15:58:45.040Z,22.42
2024-02-02T16:01:47.932Z,10.80
2024-02-02T16:04:57.189Z,28.80
2024-02-02T16:07:59.271Z,50.15
2024-02-02T16:11:01.307Z,30.52
2024-02-02T16:14:03.520Z,34.40
2024-02-02T16:17:07.755Z,27.52
2024-02-02T16:20:11.217Z,32.58
2024-02-02T16:23:13.361Z,31.02
2024-02-02T16:26:15.596Z,38.22
2024-02-02T16:29:17.861Z,40.35
2024-02-02T16:32:19.953Z,28.17
2024-02-02T16:35:25.643Z,36.95
2024-02-02T16:38:28.353Z,27.65
2024-02-02T16:41:30.500Z,39.03
2024-02-02T16:44:32.889Z,33.58
2024-02-02T16:47:34.977Z,27.55
2024-02-02T16:50:38.271Z,23.30
2024-02-02T16:53:43.096Z,29.40
2024-02-02T16:56:45.390Z,31.05
2024-02-02T16:59:48.055Z,30.35
2024-02-02T17:02:52.335Z,30.83
2024-02-02T17:05:54.555Z,27.75
2024-02-02T17:08:57.550Z,35.67
2024-02-02T17:11:59.846Z,31.20
2024-02-02T17:15:01.931Z,36.75
2024-02-02T17:18:04.298Z,37.08
2024-02-02T17:21:09.487Z,28.00
2024-02-02T17:24:11.770Z,38.40
2024-02-02T17:27:13.905Z,40.92
2024-02-02T17:30:18.174Z,38.55
2024-02-02T17:33:21.371Z,36.65
2024-02-02T17:36:23.619Z,42.53
2024-02-02T17:39:25.749Z,41.70
2024-02-02T17:42:27.867Z,36.10
2024-02-02T17:45:29.988Z,34.85
2024-02-02T17:48:33.428Z,31.52
2024-02-02T17:51:35.618Z,37.88
2024-02-02T17:54:37.763Z,43.85
2024-02-02T17:57:40.088Z,43.78
2024-02-02T18:00:42.440Z,39.40
2024-02-02T18:03:44.709Z,36.67
2024-02-02T18:06:46.935Z,31.48
2024-02-02T18:09:49.212Z,47.75
2024-02-02T18:12:52.011Z,52.25
2024-02-02T18:15:54.485Z,48.85
2024-02-02T18:18:56.813Z,58.47
2024-02-02T18:21:58.983Z,54.42
2024-02-02T18:25:01.250Z,64.63
2024-02-02T18:28:03.698Z,57.45
2024-02-02T18:31:05.904Z,54.47
2024-02-02T18:34:08.357Z,49.40
2024-02-02T18:37:10.705Z,52.92
2024-02-02T18:40:13.675Z,54.97
2024-02-02T18:43:15.825Z,57.55
2024-02-02T18:46:27.594Z,49.47
2024-02-02T18:49:33.255Z,59.40
2024-02-02T18:52:36.368Z,64.82
2024-02-02T18:55:38.675Z,68.07
2024-02-02T18:58:46.136Z,80.65
2024-02-02T19:01:49.261Z,68.38
2024-02-02T19:04:52.339Z,68.03
2024-02-02T19:07:54.744Z,76.75
2024-02-02T19:10:57.154Z,86.03
2024-02-02T19:14:00.580Z,86.18
2024-02-02T19:17:02.716Z,89.32
2024-02-02T19:20:05.337Z,79.40
2024-02-02T19:23:07.866Z,88.35
2024-02-02T19:26:10.981Z,80.55
2024-02-02T19:29:13.316Z,85.28
2024-02-02T19:32:16.630Z,88.50
2024-02-02T19:35:18.825Z,88.85
2024-02-02T19:38:20.974Z,78.70
2024-02-02T19:41:27.320Z,79.53
2024-02-02T19:44:29.435Z,69.43
2024-02-02T19:47:31.734Z,80.57
2024-02-02T19:50:33.825Z,79.18
2024-02-02T19:53:36.459Z,84.15
2024-02-02T19:56:38.612Z,69.55
2024-02-02T19:59:41.994Z,68.05
2024-02-02T20:02:48.857Z,70.32
2024-02-02T20:05:51.602Z,71.68
2024-02-02T20:08:53.793Z,68.53
2024-02-02T20:11:56.279Z,69.57
2024-02-02T20:14:58.865Z,71.32
2024-02-02T20:18:03.208Z,67.60
2024-02-02T20:21:05.813Z,65.57
2024-02-02T20:24:08.369Z,74.40
2024-02-02T20:27:10.824Z,73.95
2024-02-02T20:30:14.132Z,73.70
2024-02-02T20:33:16.854Z,60.35
2024-02-02T20:36:21.315Z,77.57
2024-02-02T20:39:23.714Z,69.80
2024-02-02T20:42:26.023Z,69.57
2024-02-02T20:45:28.835Z,64.45
2024-02-02T20:48:31.094Z,78.40
2024-02-02T20:51:33.494Z,61.92
2024-02-02T20:54:35.783Z,89.40
2024-02-02T20:57:38.162Z,73.28
2024-02-02T21:00:40.810Z,65.18
2024-02-02T21:03:43.335Z,64.70
2024-02-02T21:06:45.859Z,70.07
2024-02-02T21:09:48.265Z,66.65
2024-02-02T21:12:50.486Z,81.95
2024-02-02T21:15:54.037Z,68.68
2024-02-02T21:18:57.829Z,72.78
2024-02-02T21:22:02.845Z,75.65
2024-02-02T21:25:06.014Z,65.53
2024-02-02T21:28:08.241Z,61.15
2024-02-02T21:31:10.657Z,58.05
2024-02-02T21:34:13.035Z,73.55
2024-02-02T21:37:15.655Z,73.97
2024-02-02T21:40:18.076Z,65.00
2024-02-02T21:43:20.275Z,62.45
2024-02-02T21:46:22.665Z,69.20
2024-02-02T21:49:24.960Z,63.00
2024-02-02T21:52:27.374Z,60.58
2024-02-02T21:55:29.565Z,70.88
2024-02-02T21:58:32.535Z,62.67
2024-02-02T22:01:39.418Z,59.85
2024-02-02T22:04:41.698Z,57.22
2024-02-02T22:07:43.962Z,62.40
2024-02-02T22:10:46.302Z,74.63
2024-02-02T22:13:49.521Z,67.28
2024-02-02T22:16:51.856Z,74.05
2024-02-02T22:19:54.241Z,76.30
2024-02-02T22:22:56.468Z,79.10
2024-02-02T22:25:59.055Z,80.32
2024-02-02T22:29:02.078Z,79.00
2024-02-02T22:32:04.892Z,76.18
2024-02-02T22:35:07.853Z,52.22
2024-02-02T22:38:10.152Z,56.83
2024-02-02T22:41:32.221Z,59.25
2024-02-02T22:44:36.504Z,56.63
2024-02-02T22:47:39.658Z,57.17
2024-02-02T22:50:41.896Z,63.80
2024-02-02T22:53:44.265Z,43.70
2024-02-02T22:56:46.355Z,46.10
2024-02-02T22:59:53.642Z,54.03
2024-02-02T23:03:01.773Z,54.35
2024-02-02T23:06:05.343Z,63.00
2024-02-02T23:09:07.687Z,47.95
2024-02-02T23:12:10.913Z,47.03
2024-02-02T23:15:13.292Z,46.90
2024-02-02T23:18:15.662Z,56.28
2024-02-02T23:21:17.873Z,47.92
2024-02-02T23:24:20.046Z,38.55
2024-02-02T23:27:22.344Z,40.75
2024-02-02T23:30:24.790Z,45.75
2024-02-02T23:33:27.788Z,55.88
2024-02-02T23:36:30.089Z,48.58
2024-02-02T23:39:32.286Z,47.40
2024-02-02T23:42:34.598Z,51.65
2024-02-02T23:45:36.793Z,43.53
2024-02-02T23:48:39.120Z,59.13
2024-02-02T23:51:41.748Z,42.13
2024-02-02T23:54:44.221Z,43.45
2024-02-02T23:57:46.641Z,43.33
